Time;durP1;ratioP1;P1;durP2;ratioP2;P2;SDS_P1;SDS_P2;PMS_P1;PMS_P2;Temp;Humidity;BMP_temperature;BMP_pressure;BME280_temperature;BME280_humidity;BME280_pressure;Samples;Min_cycle;Max_cycle;Signal;HPM_P1;HPM_P2
2021/11/20 00:01:01;;;;;;;11.70;5.50;;;;;;;9.45;80.33;99035.36;102846;1327;97887;-70
2021/11/20 00:03:30;;;;;;;14.90;7.20;;;;;;;9.48;80.28;99028.25;102696;1321;112496;-71
2021/11/20 00:05:58;;;;;;;14.40;6.80;;;;;;;9.50;80.28;99032.02;102729;1325;97946;-70
2021/11/20 00:08:27;;;;;;;17.20;6.60;;;;;;;9.52;80.31;99035.39;102731;1321;108531;-70
2021/11/20 00:11:03;;;;;;;14.70;6.30;;;;;;;9.53;80.33;99033.52;102774;1321;98569;-72
2021/11/20 00:13:32;;;;;;;16.50;7.40;;;;;;;9.56;80.25;99031.80;102778;1325;97895;-71
2021/11/20 00:16:03;;;;;;;17.70;7.00;;;;;;;9.57;80.23;99031.02;102828;1321;111613;-71
2021/11/20 00:18:33;;;;;;;14.60;6.80;;;;;;;9.59;80.24;99031.95;102774;1316;98001;-72
2021/11/20 00:21:06;;;;;;;17.90;7.30;;;;;;;9.61;80.23;99034.10;102741;1322;109184;-71
2021/11/20 00:23:39;;;;;;;17.10;8.10;;;;;;;9.61;80.16;99039.52;102578;1324;96217;-71
2021/11/20 00:26:12;;;;;;;19.20;8.30;;;;;;;9.63;80.24;99045.83;102884;1321;96569;-71
2021/11/20 00:31:55;;;;;;;16.70;8.30;;;;;;;9.63;80.04;99051.85;102939;1321;96549;-71
2021/11/20 00:34:29;;;;;;;17.80;8.40;;;;;;;9.64;80.10;99059.75;102727;1321;107790;-70
2021/11/20 00:36:59;;;;;;;17.40;8.70;;;;;;;9.63;80.12;99060.50;102818;1321;95938;-70
2021/11/20 00:39:30;;;;;;;18.50;8.90;;;;;;;9.64;80.02;99070.86;102808;1320;97848;-70
2021/11/20 00:42:00;;;;;;;18.40;9.20;;;;;;;9.65;79.92;99065.50;102774;1321;111555;-71
2021/11/20 00:44:29;;;;;;;19.40;9.80;;;;;;;9.64;80.01;99065.90;102795;1325;97904;-71
2021/11/20 00:46:57;;;;;;;25.00;10.60;;;;;;;9.64;79.85;99059.73;102832;1321;108549;-70
2021/11/20 00:49:26;;;;;;;21.00;10.90;;;;;;;9.64;79.94;99062.75;102771;1321;97983;-71
2021/11/20 00:51:55;;;;;;;19.50;10.20;;;;;;;9.64;79.81;99063.10;102602;1321;98779;-69
2021/11/20 00:54:25;;;;;;;23.30;10.70;;;;;;;9.63;79.87;99059.63;102750;1320;111587;-71
2021/11/20 00:56:52;;;;;;;20.40;10.60;;;;;;;9.63;79.85;99051.31;102779;1324;97927;-71
2021/11/20 00:59:22;;;;;;;23.00;10.40;;;;;;;9.63;79.75;99039.98;102747;1321;107081;-72
2021/11/20 01:01:55;;;;;;;21.20;11.10;;;;;;;9.62;79.83;99037.71;102759;1320;97893;-72
2021/11/20 01:04:26;;;;;;;23.40;10.70;;;;;;;9.62;79.77;99040.73;102736;1321;96526;-71
2021/11/20 01:06:55;;;;;;;20.00;10.80;;;;;;;9.61;79.74;99035.83;102770;1325;111715;-69
2021/11/20 01:09:29;;;;;;;21.70;11.60;;;;;;;9.61;79.75;99035.10;102780;1322;97934;-71
2021/11/20 01:12:04;;;;;;;20.60;11.10;;;;;;;9.60;79.73;99025.62;102710;1321;108474;-72
2021/11/20 01:14:33;;;;;;;21.10;11.50;;;;;;;9.60;79.71;99022.48;102596;1321;97916;-70
2021/11/20 01:17:05;;;;;;;21.20;11.80;;;;;;;9.57;79.67;99024.80;102797;1321;97886;-70
2021/11/20 01:19:35;;;;;;;22.30;12.30;;;;;;;9.57;79.61;99021.63;102777;1322;111553;-71
2021/11/20 01:22:08;;;;;;;23.00;11.80;;;;;;;9.55;79.61;99022.95;102525;1318;97197;-71
2021/11/20 01:24:36;;;;;;;22.20;12.20;;;;;;;9.54;79.42;99017.56;102788;1322;107999;-71
2021/11/20 01:27:04;;;;;;;21.40;11.60;;;;;;;9.51;79.45;99016.02;102791;1322;97935;-72
2021/11/20 01:29:32;;;;;;;23.00;11.80;;;;;;;9.49;79.55;99011.86;102844;1324;98074;-72
2021/11/20 01:32:01;;;;;;;24.00;12.20;;;;;;;9.49;79.51;99003.90;102709;1324;111709;-71
2021/11/20 01:34:30;;;;;;;22.70;11.50;;;;;;;9.48;79.56;99007.35;102738;1321;98041;-71
2021/11/20 01:37:02;;;;;;;22.00;11.20;;;;;;;9.48;79.49;98999.58;102724;1321;110227;-72
2021/11/20 01:39:35;;;;;;;22.00;12.30;;;;;;;9.47;79.43;98995.55;102769;1324;97973;-72
2021/11/20 01:42:23;;;;;;;25.20;12.10;;;;;;;9.46;79.37;98987.83;102768;1322;97987;-69
2021/11/20 01:44:55;;;;;;;23.10;11.80;;;;;;;9.46;79.38;98989.23;102724;1321;111455;-70
2021/11/20 01:47:25;;;;;;;21.10;11.40;;;;;;;9.47;79.33;98987.26;102787;1321;98069;-70
2021/11/20 01:50:00;;;;;;;22.90;12.40;;;;;;;9.47;79.26;98990.10;102749;1321;107874;-70
2021/11/20 01:52:51;;;;;;;23.10;11.50;;;;;;;9.46;79.32;98983.96;102785;1315;97983;-69
2021/11/20 01:55:38;;;;;;;22.80;11.40;;;;;;;9.45;79.25;98991.46;102778;1321;97903;-70
2021/11/20 01:58:34;;;;;;;22.70;11.70;;;;;;;9.44;79.15;98981.64;102605;1326;109756;-72
2021/11/20 02:01:16;;;;;;;20.10;9.50;;;;;;;9.43;79.11;98970.89;102809;1322;97884;-72
2021/11/20 02:04:08;;;;;;;24.20;11.00;;;;;;;9.42;79.15;98976.06;102789;1321;106699;-70
2021/11/20 02:06:59;;;;;;;21.20;11.00;;;;;;;9.42;79.15;98978.22;102710;1321;98031;-70
2021/11/20 02:09:51;;;;;;;20.90;10.20;;;;;;;9.42;79.09;98974.35;102775;1321;97888;-70
2021/11/20 02:12:24;;;;;;;23.40;10.90;;;;;;;9.41;79.07;98973.34;102774;1321;111589;-71
2021/11/20 02:14:52;;;;;;;25.00;10.60;;;;;;;9.40;78.97;98967.36;102802;1321;96500;-71
2021/11/20 02:17:26;;;;;;;22.50;10.40;;;;;;;9.40;79.09;98969.48;102751;1325;107898;-73
2021/11/20 02:20:02;;;;;;;23.70;10.80;;;;;;;9.40;78.98;98976.90;102720;1321;98014;-72
2021/11/20 02:22:36;;;;;;;23.10;10.30;;;;;;;9.40;79.01;98986.83;102733;1322;97993;-72
2021/11/20 02:25:06;;;;;;;22.60;9.30;;;;;;;9.40;79.07;98981.86;102766;1324;113008;-71
2021/11/20 02:27:39;;;;;;;19.20;9.80;;;;;;;9.41;78.86;98989.43;102661;1317;97990;-70
2021/11/20 02:30:14;;;;;;;20.10;10.40;;;;;;;9.42;78.90;98989.03;102759;1321;107863;-71
2021/11/20 02:32:43;;;;;;;19.50;9.40;;;;;;;9.43;78.93;98997.64;102614;1321;98202;-72
2021/11/20 02:35:14;;;;;;;21.00;9.60;;;;;;;9.43;78.97;98998.83;102713;1325;97908;-71
2021/11/20 02:37:42;;;;;;;19.90;9.40;;;;;;;9.45;78.84;99000.69;102750;1324;111118;-72
2021/11/20 02:40:11;;;;;;;20.00;9.80;;;;;;;9.45;78.90;99003.13;102848;1322;97871;-71
2021/11/20 02:42:40;;;;;;;22.80;9.30;;;;;;;9.45;78.92;99003.13;102831;1325;107984;-72
2021/11/20 02:45:19;;;;;;;22.80;9.70;;;;;;;9.47;78.85;99004.63;102438;1324;97893;-72
2021/11/20 02:47:49;;;;;;;23.00;9.80;;;;;;;9.48;78.86;99007.54;102838;1321;97878;-70
2021/11/20 02:50:26;;;;;;;20.40;9.60;;;;;;;9.49;78.86;99011.86;102660;1321;172490;-72
2021/11/20 02:52:54;;;;;;;22.00;9.60;;;;;;;9.51;78.80;99011.41;102760;1321;96637;-70
2021/11/20 02:55:21;;;;;;;21.90;9.80;;;;;;;9.52;78.76;99013.98;102835;1321;107714;-71
2021/11/20 02:57:49;;;;;;;22.80;10.80;;;;;;;9.53;78.81;99013.90;102795;1322;98036;-70
2021/11/20 03:00:18;;;;;;;21.30;9.20;;;;;;;9.55;78.76;99006.69;102742;1325;97931;-71
2021/11/20 03:02:47;;;;;;;22.40;10.10;;;;;;;9.55;78.75;99014.13;102816;1321;111580;-70
2021/11/20 03:05:19;;;;;;;20.90;10.80;;;;;;;9.55;78.73;99017.15;102800;1323;97831;-70
2021/11/20 03:07:47;;;;;;;23.00;9.80;;;;;;;9.56;78.68;99017.48;102839;1320;107898;-70
2021/11/20 03:10:16;;;;;;;19.80;9.60;;;;;;;9.56;78.72;99018.33;102865;1325;95409;-70
2021/11/20 03:12:43;;;;;;;20.40;10.10;;;;;;;9.56;78.62;99022.05;102756;1321;96351;-69
2021/11/20 03:15:12;;;;;;;22.80;10.70;;;;;;;9.55;78.52;99024.22;102824;1321;111343;-70
2021/11/20 03:17:40;;;;;;;25.60;11.40;;;;;;;9.53;78.59;99020.30;102711;1325;97935;-69
2021/11/20 03:20:12;;;;;;;22.20;10.90;;;;;;;9.52;78.48;99022.83;102599;1324;107920;-71
2021/11/20 03:22:49;;;;;;;24.10;12.10;;;;;;;9.51;78.56;99024.67;102815;1320;98426;-69
2021/11/20 03:25:18;;;;;;;23.50;11.80;;;;;;;9.48;78.49;99025.24;102794;1321;98230;-70
2021/11/20 03:27:47;;;;;;;21.30;10.40;;;;;;;9.47;78.47;99033.46;102746;1321;111614;-71
2021/11/20 03:30:16;;;;;;;20.90;10.40;;;;;;;9.43;78.36;99035.11;102719;1322;98008;-70
2021/11/20 03:32:46;;;;;;;20.90;10.70;;;;;;;9.39;78.45;99026.33;102648;1321;108337;-70
2021/11/20 03:35:15;;;;;;;25.10;12.80;;;;;;;9.35;78.29;99019.54;102731;1322;97924;-69
2021/11/20 03:37:43;;;;;;;24.50;12.60;;;;;;;9.32;78.37;99026.84;102770;1321;96372;-70
2021/11/20 03:40:12;;;;;;;24.50;11.90;;;;;;;9.29;78.29;99029.73;102738;1321;111539;-69
2021/11/20 03:42:41;;;;;;;23.10;11.60;;;;;;;9.25;78.38;99039.54;102742;1321;97990;-70
2021/11/20 03:45:12;;;;;;;24.30;12.50;;;;;;;9.20;78.26;99041.95;102552;1324;107907;-71
2021/11/20 03:47:41;;;;;;;23.00;13.40;;;;;;;9.16;78.29;99036.97;102767;1322;97907;-70
2021/11/20 03:50:12;;;;;;;26.70;13.50;;;;;;;9.10;78.36;99038.73;102818;1325;97891;-70
2021/11/20 03:52:42;;;;;;;24.00;13.30;;;;;;;9.06;78.44;99046.09;102618;1325;112970;-70
2021/11/20 03:55:16;;;;;;;24.00;13.50;;;;;;;9.02;78.43;99041.91;102783;1324;96689;-70
2021/11/20 03:57:45;;;;;;;24.80;13.20;;;;;;;8.98;78.27;99039.22;102823;1322;107781;-70
2021/11/20 04:00:17;;;;;;;21.30;11.70;;;;;;;8.93;78.41;99041.46;102838;1324;97969;-71
2021/11/20 04:02:48;;;;;;;25.40;13.50;;;;;;;8.90;78.36;99044.30;102739;1322;96515;-71
2021/11/20 04:05:19;;;;;;;27.20;13.70;;;;;;;8.86;78.40;99045.63;102610;1327;111049;-70
2021/11/20 04:07:49;;;;;;;28.50;15.10;;;;;;;8.83;78.45;99049.03;102735;1321;96547;-70
2021/11/20 04:10:20;;;;;;;28.00;14.70;;;;;;;8.80;78.38;99052.73;102838;1325;109131;-71
2021/11/20 04:12:49;;;;;;;28.60;14.50;;;;;;;8.77;78.30;99047.24;102882;1322;97935;-70
2021/11/20 04:15:22;;;;;;;30.70;15.20;;;;;;;8.74;78.38;99047.30;102715;1321;96457;-70
2021/11/20 04:17:50;;;;;;;24.80;13.70;;;;;;;8.73;78.43;99048.29;102737;1321;111644;-70
2021/11/20 04:20:21;;;;;;;27.80;13.70;;;;;;;8.71;78.40;99048.43;102824;1321;97916;-71
2021/11/20 04:22:52;;;;;;;24.20;12.60;;;;;;;8.69;78.47;99047.30;102752;1322;107880;-70
2021/11/20 04:25:22;;;;;;;23.70;12.20;;;;;;;8.67;78.53;99041.58;102718;1322;97984;-71
2021/11/20 04:27:51;;;;;;;22.90;12.10;;;;;;;8.65;78.39;99041.85;102772;1322;97484;-71
2021/11/20 04:30:23;;;;;;;26.60;13.70;;;;;;;8.65;78.60;99046.86;102681;1321;111518;-70
2021/11/20 04:32:53;;;;;;;29.10;13.30;;;;;;;8.63;78.58;99037.90;102730;1323;97915;-70
2021/11/20 04:35:25;;;;;;;29.60;13.30;;;;;;;8.63;78.53;99032.82;102817;1325;107851;-70
2021/11/20 04:37:54;;;;;;;26.00;12.80;;;;;;;8.63;78.58;99030.15;102768;1321;97791;-70
2021/11/20 04:40:24;;;;;;;24.10;12.40;;;;;;;8.62;78.55;99038.50;102665;1328;97995;-70
2021/11/20 04:42:52;;;;;;;26.80;12.70;;;;;;;8.64;78.78;99040.72;102858;1322;111492;-72
2021/11/20 04:45:24;;;;;;;20.40;10.80;;;;;;;8.65;78.78;99048.42;102740;1321;97935;-71
2021/11/20 04:47:55;;;;;;;25.90;12.50;;;;;;;8.66;78.61;99047.66;102751;1322;107771;-70
2021/11/20 04:50:28;;;;;;;23.40;12.30;;;;;;;8.67;78.69;99035.92;102746;1325;98045;-70
2021/11/20 04:52:57;;;;;;;25.70;11.80;;;;;;;8.70;78.70;99036.98;102748;1321;98453;-71
2021/11/20 04:55:26;;;;;;;23.70;11.80;;;;;;;8.70;78.79;99038.39;102858;1324;111641;-70
2021/11/20 04:57:55;;;;;;;21.30;10.90;;;;;;;8.69;78.76;99027.65;102872;1321;95232;-71
2021/11/20 05:00:40;;;;;;;22.40;11.60;;;;;;;8.69;78.86;99023.58;102891;1321;106131;-71
2021/11/20 05:03:08;;;;;;;22.60;11.30;;;;;;;8.70;78.70;99031.31;102805;1324;98321;-72
2021/11/20 05:05:43;;;;;;;23.40;11.30;;;;;;;8.72;78.96;99037.90;102795;1321;97919;-72
2021/11/20 05:08:11;;;;;;;21.30;11.00;;;;;;;8.73;78.99;99033.95;102817;1321;112716;-71
2021/11/20 05:10:41;;;;;;;22.40;10.40;;;;;;;8.73;78.80;99031.95;102659;1321;98709;-72
2021/11/20 05:13:11;;;;;;;21.10;10.10;;;;;;;8.75;78.95;99039.65;102788;1321;107948;-71
2021/11/20 05:15:43;;;;;;;21.10;10.80;;;;;;;8.76;78.90;99034.59;102747;1322;97920;-70
2021/11/20 05:18:12;;;;;;;20.90;9.90;;;;;;;8.78;78.92;99032.88;102836;1321;97921;-70
2021/11/20 05:20:41;;;;;;;23.30;10.50;;;;;;;8.79;79.00;99041.15;102822;1321;110644;-70
2021/11/20 05:23:11;;;;;;;21.00;10.30;;;;;;;8.81;79.10;99053.23;102843;1325;97920;-70
2021/11/20 05:25:40;;;;;;;22.80;10.10;;;;;;;8.82;79.05;99051.75;102859;1322;108435;-70
2021/11/20 05:28:09;;;;;;;20.50;10.00;;;;;;;8.83;79.10;99045.16;102810;1327;98015;-70
2021/11/20 05:30:43;;;;;;;18.90;9.40;;;;;;;8.85;79.11;99049.58;102915;1325;98147;-69
2021/11/20 05:33:31;;;;;;;22.20;10.30;;;;;;;8.87;79.02;99057.39;102688;1321;111537;-70
2021/11/20 05:36:02;;;;;;;20.10;9.40;;;;;;;8.89;79.05;99053.92;102833;1321;97907;-70
2021/11/20 05:38:30;;;;;;;19.30;8.80;;;;;;;8.90;79.08;99067.99;102799;1323;107946;-70
2021/11/20 05:40:57;;;;;;;22.10;8.10;;;;;;;8.91;79.05;99072.00;102848;1321;97996;-70
2021/11/20 05:43:26;;;;;;;21.50;9.30;;;;;;;8.92;79.14;99079.73;102783;1321;97954;-69
2021/11/20 05:46:02;;;;;;;21.30;9.40;;;;;;;8.94;79.09;99073.25;102713;1327;112123;-70
2021/11/20 05:48:30;;;;;;;23.30;10.00;;;;;;;8.95;79.05;99081.84;102793;1321;98618;-70
2021/11/20 05:50:58;;;;;;;23.80;10.20;;;;;;;8.97;79.16;99082.96;102791;1322;108039;-71
2021/11/20 05:53:26;;;;;;;22.30;10.60;;;;;;;8.98;79.23;99083.75;102822;1321;97989;-72
2021/11/20 05:55:57;;;;;;;17.50;8.50;;;;;;;8.99;79.16;99096.60;102803;1321;97901;-73
2021/11/20 05:58:27;;;;;;;23.00;9.40;;;;;;;9.00;79.13;99099.53;102813;1325;111554;-72
2021/11/20 06:01:01;;;;;;;21.30;9.30;;;;;;;9.01;79.18;99087.79;102844;1322;97935;-72
2021/11/20 06:03:29;;;;;;;19.10;9.40;;;;;;;9.04;79.15;99093.80;102644;1327;107982;-71
2021/11/20 06:05:57;;;;;;;21.60;10.20;;;;;;;9.03;79.13;99105.54;102754;1321;97893;-71
2021/11/20 06:08:25;;;;;;;22.00;10.30;;;;;;;9.05;79.16;99113.23;102808;1321;97903;-71
2021/11/20 06:10:57;;;;;;;23.10;9.70;;;;;;;9.06;79.09;99109.07;102839;1322;111469;-70
2021/11/20 06:13:28;;;;;;;23.70;10.30;;;;;;;9.07;79.13;99114.31;102795;1324;97897;-71
2021/11/20 06:15:57;;;;;;;20.60;9.60;;;;;;;9.08;79.13;99117.42;102799;1322;108921;-71
2021/11/20 06:18:25;;;;;;;19.90;9.60;;;;;;;9.08;79.13;99112.63;102773;1321;97914;-71
2021/11/20 06:20:55;;;;;;;19.00;8.70;;;;;;;9.10;79.08;99114.84;102848;1322;97901;-70
2021/11/20 06:23:28;;;;;;;21.50;10.10;;;;;;;9.11;79.15;99122.54;102778;1321;111663;-71
2021/11/20 06:25:57;;;;;;;17.80;8.90;;;;;;;9.12;79.13;99123.36;102782;1322;97931;-71
2021/11/20 06:28:26;;;;;;;19.40;9.90;;;;;;;9.13;79.09;99123.81;102879;1325;107465;-71
2021/11/20 06:30:55;;;;;;;21.90;9.20;;;;;;;9.14;79.10;99127.85;102758;1324;97924;-71
2021/11/20 06:33:22;;;;;;;20.70;9.00;;;;;;;9.15;79.11;99131.82;102845;1319;97801;-70
2021/11/20 06:35:56;;;;;;;20.10;9.30;;;;;;;9.17;79.17;99136.64;102679;1322;110560;-71
2021/11/20 06:38:27;;;;;;;19.40;8.30;;;;;;;9.18;79.04;99132.13;102631;1323;97927;-71
2021/11/20 06:41:00;;;;;;;19.00;8.60;;;;;;;9.19;79.05;99131.54;102712;1323;108337;-72
2021/11/20 06:43:28;;;;;;;17.20;8.00;;;;;;;9.21;79.03;99135.69;102771;1322;97909;-68
2021/11/20 06:46:02;;;;;;;18.70;8.60;;;;;;;9.25;79.15;99145.16;102778;1322;97947;-70
2021/11/20 06:48:31;;;;;;;16.60;7.90;;;;;;;9.29;79.10;99153.95;102746;1322;110643;-69
2021/11/20 06:50:59;;;;;;;16.20;8.20;;;;;;;9.31;79.05;99157.52;102657;1320;97913;-68
2021/11/20 06:53:30;;;;;;;20.40;10.30;;;;;;;9.30;78.98;99164.63;102691;1321;105541;-69
2021/11/20 06:55:59;;;;;;;24.10;11.50;;;;;;;9.30;78.95;99155.45;102759;1321;96714;-70
2021/11/20 07:01:08;;;;;;;;;;;;;;;9.32;79.04;99152.14;102798;1324;111465;-70
2021/11/20 07:03:48;;;;;;;19.30;8.60;;;;;;;9.31;78.97;99152.92;102739;1324;97990;-69
2021/11/20 07:06:25;;;;;;;20.00;8.90;;;;;;;9.32;79.00;99157.61;102859;1325;107977;-69
2021/11/20 07:08:56;;;;;;;17.60;8.10;;;;;;;9.33;79.10;99161.63;102792;1321;97983;-68
2021/11/20 07:11:26;;;;;;;18.20;7.80;;;;;;;9.34;79.09;99169.36;102769;1322;98319;-71
2021/11/20 07:13:55;;;;;;;17.30;7.80;;;;;;;9.35;78.98;99166.12;102785;1322;111545;-71
2021/11/20 07:16:27;;;;;;;17.60;7.80;;;;;;;9.37;79.01;99162.24;102817;1325;96624;-69
2021/11/20 07:18:57;;;;;;;18.90;7.90;;;;;;;9.39;78.97;99161.05;102697;1325;107944;-68
2021/11/20 07:21:27;;;;;;;16.80;7.40;;;;;;;9.38;78.89;99169.76;102675;1320;97810;-70
2021/11/20 07:24:00;;;;;;;16.00;7.70;;;;;;;9.38;78.86;99172.61;102758;1322;97631;-69
2021/11/20 07:26:29;;;;;;;18.00;7.60;;;;;;;9.39;78.87;99168.99;102673;1321;111610;-69
2021/11/20 07:28:57;;;;;;;19.00;7.50;;;;;;;9.40;78.93;99161.49;102765;1326;97523;-69
2021/11/20 07:31:44;;;;;;;19.10;7.20;;;;;;;9.43;78.92;99172.67;102729;1324;110645;-73
2021/11/20 07:34:12;;;;;;;19.90;8.20;;;;;;;9.44;78.83;99167.98;102898;1323;97905;-69
2021/11/20 07:36:41;;;;;;;17.30;7.90;;;;;;;9.47;78.78;99173.99;102650;1325;96376;-70
2021/11/20 07:39:15;;;;;;;17.10;7.10;;;;;;;9.49;78.81;99172.23;102771;1319;112226;-70
2021/11/20 07:41:44;;;;;;;20.70;8.60;;;;;;;9.52;78.81;99174.52;102804;1325;97679;-71
2021/11/20 07:44:12;;;;;;;16.90;7.40;;;;;;;9.58;78.93;99179.47;102777;1324;107771;-71
2021/11/20 07:46:41;;;;;;;19.40;8.10;;;;;;;9.67;78.94;99188.58;102756;1325;98097;-72
2021/11/20 07:49:09;;;;;;;17.50;7.50;;;;;;;9.76;79.00;99184.30;102819;1326;98058;-70
2021/11/20 07:51:38;;;;;;;18.00;7.60;;;;;;;9.81;78.79;99180.20;102788;1323;112036;-69
2021/11/20 07:54:06;;;;;;;17.20;7.90;;;;;;;9.86;78.86;99175.29;102619;1320;97505;-69
2021/11/20 07:56:39;;;;;;;18.40;7.40;;;;;;;9.93;78.85;99179.40;104376;1321;108413;-74
2021/11/20 07:59:11;;;;;;;19.90;7.30;;;;;;;10.01;78.75;99180.50;104320;1321;95945;-73
2021/11/20 08:01:42;;;;;;;16.30;7.60;;;;;;;10.00;78.68;99181.09;102923;1319;95957;-77
2021/11/20 08:04:14;;;;;;;18.00;7.40;;;;;;;9.98;78.48;99181.70;102949;1326;111993;-75
2021/11/20 08:06:43;;;;;;;19.30;8.20;;;;;;;9.97;78.50;99184.95;102727;1325;97951;-74
2021/11/20 08:09:12;;;;;;;17.10;7.90;;;;;;;9.95;78.42;99186.02;102760;1327;106258;-73
2021/11/20 08:11:41;;;;;;;18.80;8.20;;;;;;;9.94;78.44;99193.88;102749;1322;96797;-71
2021/11/20 08:14:11;;;;;;;21.20;8.10;;;;;;;9.91;78.47;99188.55;102762;1328;98045;-73
2021/11/20 08:16:40;;;;;;;19.00;8.00;;;;;;;9.92;78.35;99186.75;102806;1325;111676;-72
2021/11/20 08:19:08;;;;;;;18.80;7.80;;;;;;;9.92;78.49;99188.73;102835;1321;98534;-74
2021/11/20 08:21:37;;;;;;;18.50;7.90;;;;;;;9.92;78.43;99190.98;102830;1321;107825;-74
2021/11/20 08:24:06;;;;;;;19.80;8.10;;;;;;;9.93;78.28;99185.61;103814;1320;97883;-73
2021/11/20 08:26:37;;;;;;;20.10;7.80;;;;;;;9.94;78.49;99196.70;102953;1321;95272;-75
2021/11/20 08:29:15;;;;;;;17.30;7.80;;;;;;;9.98;78.29;99205.10;102794;1325;111535;-74
2021/11/20 08:31:47;;;;;;;19.80;8.00;;;;;;;10.00;78.23;99204.77;102704;1323;97804;-74
2021/11/20 08:34:17;;;;;;;17.30;7.90;;;;;;;10.01;78.29;99202.29;102574;1328;106124;-75
2021/11/20 08:36:47;;;;;;;16.90;6.90;;;;;;;9.99;78.23;99196.35;102700;1321;97997;-75
2021/11/20 08:39:19;;;;;;;19.30;8.00;;;;;;;9.99;78.21;99196.33;102852;1322;97979;-76
2021/11/20 08:41:49;;;;;;;20.60;8.20;;;;;;;10.00;78.13;99202.02;102673;1324;111584;-76
2021/11/20 08:44:17;;;;;;;18.00;7.10;;;;;;;10.01;78.21;99213.95;102846;1322;97985;-78
2021/11/20 08:46:45;;;;;;;19.40;8.20;;;;;;;10.02;78.13;99215.67;102785;1325;107633;-74
2021/11/20 08:49:14;;;;;;;19.70;7.60;;;;;;;10.00;78.10;99222.36;102582;1327;98012;-71
2021/11/20 08:51:46;;;;;;;17.70;7.80;;;;;;;10.00;78.08;99222.55;102767;1321;96426;-74
2021/11/20 08:54:13;;;;;;;21.50;8.70;;;;;;;9.99;77.91;99219.39;102791;1319;111379;-70
2021/11/20 08:56:45;;;;;;;17.40;7.70;;;;;;;9.98;77.92;99220.52;102791;1325;97975;-72
2021/11/20 08:59:20;;;;;;;17.60;7.00;;;;;;;10.00;77.97;99217.44;102749;1321;107932;-70
2021/11/20 09:02:01;;;;;;;19.60;8.70;;;;;;;10.14;77.89;99224.23;102701;1322;97887;-73
2021/11/20 09:04:39;;;;;;;19.30;8.10;;;;;;;10.27;77.92;99218.70;102884;1323;97978;-71
2021/11/20 09:07:15;;;;;;;20.30;8.70;;;;;;;10.27;77.92;99220.17;102824;1325;111563;-71
2021/11/20 09:09:49;;;;;;;19.80;8.10;;;;;;;10.25;77.81;99227.70;102870;1318;97942;-71
2021/11/20 09:12:33;;;;;;;18.30;8.10;;;;;;;10.26;77.78;99217.21;102756;1321;107988;-70
2021/11/20 09:15:15;;;;;;;17.60;7.60;;;;;;;10.29;77.63;99215.60;102721;1321;98070;-69
2021/11/20 09:17:44;;;;;;;18.80;8.10;;;;;;;10.30;77.58;99216.60;102718;1324;98501;-70
2021/11/20 09:20:13;;;;;;;20.40;8.50;;;;;;;10.33;77.50;99211.77;102734;1321;111522;-71
2021/11/20 09:22:41;;;;;;;18.60;8.60;;;;;;;10.37;77.50;99211.70;102682;1319;98364;-71
2021/11/20 09:25:13;;;;;;;20.50;8.70;;;;;;;10.40;77.53;99212.34;102772;1325;107559;-70
2021/11/20 09:28:09;;;;;;;18.00;7.90;;;;;;;10.45;77.31;99208.48;102692;1325;97838;-72
2021/11/20 09:30:44;;;;;;;18.80;7.90;;;;;;;10.49;77.47;99205.56;102630;1326;97922;-71
2021/11/20 09:33:14;;;;;;;18.50;7.80;;;;;;;10.56;77.50;99199.02;102390;1328;111496;-73
2021/11/20 09:35:45;;;;;;;18.70;7.70;;;;;;;10.60;77.35;99194.92;102616;1323;97918;-72
2021/11/20 09:38:16;;;;;;;20.50;8.60;;;;;;;10.62;77.40;99199.16;102638;1323;107812;-72
2021/11/20 09:40:51;;;;;;;20.50;8.30;;;;;;;10.61;77.47;99200.27;102527;1323;97900;-71
2021/11/20 09:43:27;;;;;;;17.20;8.00;;;;;;;10.61;77.43;99198.86;102839;1325;97888;-77
2021/11/20 09:46:03;;;;;;;19.40;8.00;;;;;;;10.61;77.24;99191.13;102596;1321;111430;-72
2021/11/20 09:48:37;;;;;;;16.90;7.60;;;;;;;10.58;77.21;99182.45;102720;1321;98634;-73
2021/11/20 09:51:26;;;;;;;14.70;7.20;;;;;;;10.55;77.20;99187.75;102639;1325;107820;-70
2021/11/20 09:53:55;;;;;;;18.20;7.20;;;;;;;10.55;77.15;99191.48;102646;1325;98038;-71
2021/11/20 09:56:29;;;;;;;20.80;8.40;;;;;;;10.57;77.11;99185.99;102617;1321;97962;-70
2021/11/20 09:59:07;;;;;;;20.80;8.80;;;;;;;10.62;77.13;99190.09;102827;1321;111507;-71
2021/11/20 10:01:55;;;;;;;18.10;7.50;;;;;;;10.67;77.00;99184.64;102750;1324;97800;-72
2021/11/20 10:04:45;;;;;;;16.80;7.60;;;;;;;10.68;77.08;99183.47;102690;1324;109309;-70
2021/11/20 10:07:21;;;;;;;19.50;8.10;;;;;;;10.72;77.01;99172.39;102636;1324;98012;-66
2021/11/20 10:09:55;;;;;;;19.20;8.10;;;;;;;10.74;77.09;99172.42;102741;1319;97909;-67
2021/11/20 10:12:48;;;;;;;18.60;8.10;;;;;;;10.77;77.08;99169.05;102787;1319;111074;-72
2021/11/20 10:15:29;;;;;;;18.90;7.30;;;;;;;10.80;77.07;99162.64;102461;1325;97963;-69
2021/11/20 10:18:18;;;;;;;16.60;7.40;;;;;;;10.80;77.00;99160.14;102617;1319;108111;-70
2021/11/20 10:20:46;;;;;;;17.70;7.70;;;;;;;10.82;76.89;99164.02;102698;1319;97945;-68
2021/11/20 10:23:51;;;;;;;16.70;6.80;;;;;;;10.84;76.80;99164.77;102763;1324;98503;-70
2021/11/20 10:26:36;;;;;;;18.80;7.50;;;;;;;10.87;76.75;99174.52;102477;1325;112180;-69
2021/11/20 10:29:29;;;;;;;16.00;7.30;;;;;;;10.88;76.75;99178.69;102792;1325;98047;-71
2021/11/20 10:32:07;;;;;;;18.30;6.80;;;;;;;10.87;76.65;99184.40;102663;1320;108043;-71
2021/11/20 10:34:46;;;;;;;16.70;7.10;;;;;;;10.85;76.46;99180.83;102791;1320;97985;-69
2021/11/20 10:37:18;;;;;;;17.20;7.10;;;;;;;10.86;76.62;99184.12;102830;1321;95227;-69
2021/11/20 10:39:51;;;;;;;14.40;6.60;;;;;;;10.91;76.45;99185.02;102761;1320;109476;-70
2021/11/20 10:42:40;;;;;;;15.70;6.90;;;;;;;10.93;76.41;99189.88;102410;1319;98277;-69
2021/11/20 10:45:16;;;;;;;15.90;7.60;;;;;;;10.92;76.34;99189.42;102739;1325;108854;-70
2021/11/20 10:47:56;;;;;;;19.80;7.50;;;;;;;10.91;76.27;99187.91;102852;1318;98150;-70
2021/11/20 10:50:58;;;;;;;17.50;7.20;;;;;;;10.92;76.28;99196.35;102599;1321;146166;-72
2021/11/20 10:54:06;;;;;;;14.70;6.90;;;;;;;10.89;76.12;99199.40;102609;1324;111734;-71
2021/11/20 10:57:03;;;;;;;18.30;7.50;;;;;;;10.88;76.08;99201.77;102768;1321;97949;-76
2021/11/20 11:00:02;;;;;;;21.40;8.10;;;;;;;10.89;76.12;99200.64;102798;1320;107891;-71
2021/11/20 11:03:08;;;;;;;18.80;7.50;;;;;;;10.91;76.15;99203.87;102831;1322;97900;-72
2021/11/20 11:06:02;;;;;;;19.60;8.70;;;;;;;10.91;75.97;99203.88;102805;1320;98000;-73
2021/11/20 11:08:41;;;;;;;20.40;8.30;;;;;;;10.91;76.00;99203.86;102757;1320;111547;-73
2021/11/20 11:11:42;;;;;;;19.30;8.00;;;;;;;10.92;75.96;99199.71;102735;1325;96683;-71
2021/11/20 11:14:28;;;;;;;18.00;7.50;;;;;;;10.95;75.92;99200.18;102871;1323;107847;-72
2021/11/20 11:17:21;;;;;;;18.00;7.50;;;;;;;10.98;75.92;99189.73;102675;1321;98026;-72
2021/11/20 11:20:03;;;;;;;14.50;6.60;;;;;;;11.03;75.80;99176.91;102532;1319;97972;-74
2021/11/20 11:22:39;;;;;;;17.10;7.90;;;;;;;11.14;75.84;99172.54;102889;1321;111451;-71
2021/11/20 11:25:22;;;;;;;18.90;7.20;;;;;;;11.27;75.86;99168.63;102787;1320;97665;-70
2021/11/20 11:27:55;;;;;;;17.20;6.70;;;;;;;11.35;75.72;99167.12;102691;1320;107885;-69
2021/11/20 11:30:24;;;;;;;15.90;6.80;;;;;;;11.42;75.54;99161.98;102693;1321;98510;-70
2021/11/20 11:32:54;;;;;;;15.10;6.40;;;;;;;11.49;75.52;99161.84;103115;1322;96684;-68
2021/11/20 11:35:29;;;;;;;15.80;6.60;;;;;;;11.54;75.53;99163.41;104277;1324;111500;-70
2021/11/20 11:38:33;;;;;;;14.60;5.90;;;;;;;11.54;75.45;99160.54;104359;1319;96271;-71
2021/11/20 11:41:25;;;;;;;15.60;6.10;;;;;;;11.52;75.34;99162.66;102801;1323;107081;-72
2021/11/20 11:44:06;;;;;;;15.90;6.10;;;;;;;11.65;75.52;99158.68;102728;1320;97885;-74
2021/11/20 11:46:46;;;;;;;16.50;6.40;;;;;;;11.69;75.26;99155.68;102734;1321;97785;-70
2021/11/20 11:49:43;;;;;;;14.50;6.40;;;;;;;11.65;75.13;99158.48;102691;1324;111593;-70
2021/11/20 11:52:39;;;;;;;18.10;6.40;;;;;;;11.60;75.01;99154.63;102870;1320;97699;-70